createdAt,value
2023-05-19T00:02:13.522Z,19.10
2023-05-19T00:04:45.181Z,19.10
2023-05-19T00:07:21.900Z,19.10
2023-05-19T00:09:53.286Z,19.00
2023-05-19T00:12:24.669Z,18.90
2023-05-19T00:14:55.947Z,19.00
2023-05-19T00:17:27.107Z,19.10
2023-05-19T00:19:58.028Z,19.00
2023-05-19T00:22:28.947Z,18.90
2023-05-19T00:24:59.901Z,19.20
2023-05-19T00:27:30.881Z,19.50
2023-05-19T00:30:01.879Z,19.60
2023-05-19T00:32:32.907Z,19.20
2023-05-19T00:35:04.112Z,19.70
2023-05-19T00:37:35.011Z,19.20
2023-05-19T00:40:07.159Z,19.50
2023-05-19T00:42:39.665Z,19.30
2023-05-19T00:45:10.788Z,19.20
2023-05-19T00:47:41.719Z,19.20
2023-05-19T00:50:12.665Z,19.50
2023-05-19T00:52:43.560Z,19.30
2023-05-19T00:55:15.411Z,19.10
2023-05-19T00:57:48.252Z,18.80
2023-05-19T01:00:19.292Z,18.90
2023-05-19T01:02:51.258Z,18.80
2023-05-19T01:05:22.888Z,18.80
2023-05-19T01:07:56.449Z,18.80
2023-05-19T01:10:27.443Z,18.90
2023-05-19T01:12:58.500Z,19.00
2023-05-19T01:15:29.770Z,19.00
2023-05-19T01:18:12.598Z,18.80
2023-05-19T01:20:59.283Z,18.90
2023-05-19T01:23:49.709Z,18.90
2023-05-19T01:27:01.035Z,18.90
2023-05-19T01:30:12.269Z,19.40
2023-05-19T01:32:45.219Z,18.90
2023-05-19T01:35:17.246Z,18.80
2023-05-19T01:37:48.806Z,18.80
2023-05-19T01:40:21.482Z,18.80
2023-05-19T01:42:59.138Z,18.80
2023-05-19T01:45:33.575Z,18.90
2023-05-19T01:48:06.331Z,18.90
2023-05-19T01:50:38.341Z,18.60
2023-05-19T01:53:09.553Z,18.60
2023-05-19T01:55:50.171Z,18.40
2023-05-19T01:58:58.855Z,18.70
2023-05-19T02:01:54.622Z,18.60
2023-05-19T02:04:45.239Z,18.60
2023-05-19T02:07:30.933Z,18.70
2023-05-19T02:10:12.004Z,18.70
2023-05-19T02:12:44.762Z,18.60
2023-05-19T02:15:25.216Z,18.50
2023-05-19T02:17:58.190Z,18.40
2023-05-19T02:20:29.129Z,18.60
2023-05-19T02:23:00.029Z,18.70
2023-05-19T02:25:31.025Z,18.60
2023-05-19T02:28:02.042Z,18.70
2023-05-19T02:30:33.105Z,18.50
2023-05-19T02:33:06.593Z,18.60
2023-05-19T02:35:37.885Z,18.60
2023-05-19T02:38:08.905Z,18.50
2023-05-19T02:40:39.830Z,18.50
2023-05-19T02:43:11.124Z,18.50
2023-05-19T02:45:42.063Z,18.60
2023-05-19T02:48:12.994Z,18.60
2023-05-19T02:50:43.990Z,18.60
2023-05-19T02:53:14.871Z,18.50
2023-05-19T02:55:45.822Z,18.40
2023-05-19T02:58:16.867Z,18.50
2023-05-19T03:00:48.008Z,18.50
2023-05-19T03:03:18.999Z,18.50
2023-05-19T03:05:50.089Z,18.50
2023-05-19T03:08:21.165Z,18.60
2023-05-19T03:10:52.087Z,18.60
2023-05-19T03:13:22.976Z,18.40
2023-05-19T03:15:53.956Z,18.30
2023-05-19T03:18:26.538Z,18.10
2023-05-19T03:20:57.548Z,18.20
2023-05-19T03:23:28.488Z,18.20
2023-05-19T03:25:59.401Z,18.10
2023-05-19T03:28:30.895Z,18.10
2023-05-19T03:31:01.797Z,18.20
2023-05-19T03:33:32.742Z,18.30
2023-05-19T03:36:04.147Z,17.90
2023-05-19T03:38:35.209Z,18.20
2023-05-19T03:41:06.238Z,18.40
2023-05-19T03:43:37.166Z,18.10
2023-05-19T03:46:08.289Z,18.00
2023-05-19T03:48:39.276Z,17.90
2023-05-19T03:51:10.221Z,18.00
2023-05-19T03:53:41.418Z,17.90
2023-05-19T03:56:13.907Z,17.80
2023-05-19T03:58:47.048Z,17.80
2023-05-19T04:01:18.053Z,17.50
2023-05-19T04:03:48.989Z,17.40
2023-05-19T04:06:20.075Z,17.50
2023-05-19T04:08:51.072Z,17.70
2023-05-19T04:11:22.234Z,17.70
2023-05-19T04:13:53.131Z,17.70
2023-05-19T04:16:24.355Z,17.80
2023-05-19T04:18:55.662Z,17.90
2023-05-19T04:21:26.663Z,18.20
2023-05-19T04:24:02.523Z,18.30
2023-05-19T04:26:34.435Z,18.20
2023-05-19T04:29:05.527Z,18.00
2023-05-19T04:31:36.525Z,18.10
2023-05-19T04:34:10.238Z,17.80
2023-05-19T04:36:41.579Z,17.80
2023-05-19T04:39:12.534Z,18.00
2023-05-19T04:41:44.902Z,18.10
2023-05-19T04:44:18.385Z,18.20
2023-05-19T04:46:50.151Z,18.00
2023-05-19T04:49:21.254Z,17.90
2023-05-19T04:51:55.533Z,17.80
2023-05-19T04:54:26.826Z,17.80
2023-05-19T04:56:57.791Z,17.70
2023-05-19T04:59:28.838Z,17.80
2023-05-19T05:02:00.254Z,17.90
2023-05-19T05:04:31.239Z,18.00
2023-05-19T05:07:02.174Z,17.80
2023-05-19T05:09:33.105Z,17.80
2023-05-19T05:12:04.676Z,17.60
2023-05-19T05:14:36.084Z,17.90
2023-05-19T05:17:07.945Z,18.00
2023-05-19T05:19:39.486Z,18.10
2023-05-19T05:22:10.830Z,18.00
2023-05-19T05:24:42.138Z,18.00
2023-05-19T05:27:13.701Z,18.10
2023-05-19T05:29:44.641Z,18.40
2023-05-19T05:32:17.076Z,18.10
2023-05-19T05:34:48.103Z,18.20
2023-05-19T05:37:19.081Z,18.40
2023-05-19T05:39:50.008Z,18.40
2023-05-19T05:42:20.972Z,18.60
2023-05-19T05:44:52.052Z,18.60
2023-05-19T05:47:23.259Z,18.40
2023-05-19T05:49:54.603Z,18.50
2023-05-19T05:52:30.481Z,18.70
2023-05-19T05:55:01.977Z,18.60
2023-05-19T05:57:35.418Z,18.70
2023-05-19T06:00:15.304Z,18.90
2023-05-19T06:02:49.364Z,18.90
2023-05-19T06:05:20.909Z,18.80
2023-05-19T06:07:51.913Z,18.70
2023-05-19T06:10:23.387Z,18.90
2023-05-19T06:12:54.575Z,18.80
2023-05-19T06:15:25.717Z,18.80
2023-05-19T06:17:56.649Z,19.20
2023-05-19T06:20:27.613Z,19.30
2023-05-19T06:22:58.559Z,19.30
2023-05-19T06:25:29.650Z,19.40
2023-05-19T06:28:00.543Z,19.60
2023-05-19T06:30:31.831Z,19.70
2023-05-19T06:33:03.810Z,19.90
2023-05-19T06:35:34.830Z,19.90
2023-05-19T06:38:05.859Z,19.90
2023-05-19T06:40:37.149Z,20.10
2023-05-19T06:43:08.140Z,20.00
2023-05-19T06:45:39.018Z,20.10
2023-05-19T06:48:10.044Z,20.20
2023-05-19T06:50:40.970Z,20.20
2023-05-19T06:53:11.937Z,20.10
2023-05-19T06:55:54.799Z,20.20
2023-05-19T06:58:30.100Z,20.40
2023-05-19T07:01:01.027Z,20.60
2023-05-19T07:03:32.118Z,20.70
2023-05-19T07:06:04.562Z,20.80
2023-05-19T07:08:37.374Z,20.50
2023-05-19T07:11:08.456Z,20.50
2023-05-19T07:13:39.323Z,20.60
2023-05-19T07:16:10.337Z,20.60
2023-05-19T07:18:41.371Z,20.70
2023-05-19T07:21:12.347Z,20.80
2023-05-19T07:23:43.375Z,20.50
2023-05-19T07:26:14.269Z,20.90
2023-05-19T07:28:45.257Z,21.00
2023-05-19T07:31:16.976Z,21.10
2023-05-19T07:33:47.947Z,21.00
2023-05-19T07:36:18.863Z,21.10
2023-05-19T07:38:50.123Z,21.40
2023-05-19T07:41:21.806Z,21.10
2023-05-19T07:43:52.818Z,21.30
2023-05-19T07:46:23.842Z,21.20
2023-05-19T07:48:54.800Z,21.70
2023-05-19T07:51:25.817Z,21.90
2023-05-19T07:53:57.512Z,21.90
2023-05-19T07:56:28.472Z,21.50
2023-05-19T07:58:59.427Z,21.40
2023-05-19T08:01:31.309Z,21.70
2023-05-19T08:04:03.488Z,21.70
2023-05-19T08:06:36.073Z,21.80
2023-05-19T08:09:06.949Z,21.80
2023-05-19T08:11:38.048Z,21.70
2023-05-19T08:14:09.095Z,22.10
2023-05-19T08:16:42.280Z,21.80
2023-05-19T08:19:13.211Z,21.90
2023-05-19T08:21:44.815Z,21.60
2023-05-19T08:24:15.911Z,21.50
2023-05-19T08:26:46.806Z,21.70
2023-05-19T08:29:17.693Z,21.60
2023-05-19T08:31:48.889Z,21.90
2023-05-19T08:34:20.897Z,22.10
2023-05-19T08:36:51.813Z,22.40
2023-05-19T08:39:26.658Z,22.10
2023-05-19T08:41:57.880Z,21.80
2023-05-19T08:44:30.852Z,21.90
2023-05-19T08:47:12.643Z,22.10
2023-05-19T08:49:46.320Z,21.60
2023-05-19T08:52:29.486Z,21.80
2023-05-19T08:55:15.800Z,21.70
2023-05-19T08:57:46.894Z,21.90
2023-05-19T09:00:19.941Z,22.00
2023-05-19T09:03:00.703Z,22.00
2023-05-19T09:05:42.681Z,21.50
2023-05-19T09:08:13.995Z,21.90
2023-05-19T09:10:44.933Z,22.10
2023-05-19T09:13:15.944Z,22.00
2023-05-19T09:15:48.283Z,22.00
2023-05-19T09:18:19.515Z,22.20
2023-05-19T09:20:50.991Z,22.00
2023-05-19T09:23:22.151Z,21.60
2023-05-19T09:25:54.011Z,21.70
2023-05-19T09:28:25.778Z,21.80
2023-05-19T09:31:11.587Z,22.10
2023-05-19T09:33:45.872Z,21.40
2023-05-19T09:36:17.251Z,21.70
2023-05-19T09:38:48.236Z,21.70
2023-05-19T09:41:19.824Z,22.00
2023-05-19T09:43:56.304Z,21.60
2023-05-19T09:46:28.418Z,21.60
2023-05-19T09:48:59.612Z,21.90
2023-05-19T09:51:32.026Z,21.90
2023-05-19T09:54:04.609Z,21.90
2023-05-19T09:56:35.789Z,21.60
2023-05-19T09:59:07.370Z,21.30
2023-05-19T10:01:41.228Z,21.70
2023-05-19T10:04:13.447Z,21.90
2023-05-19T10:06:44.831Z,22.10
2023-05-19T10:09:17.177Z,22.20
2023-05-19T10:11:49.023Z,22.40
2023-05-19T10:14:25.515Z,22.20
2023-05-19T10:16:58.657Z,22.10
2023-05-19T10:19:29.964Z,22.40
2023-05-19T10:22:01.053Z,22.30
2023-05-19T10:24:31.935Z,22.50
2023-05-19T10:27:10.234Z,22.50
2023-05-19T10:29:49.368Z,22.60
2023-05-19T10:32:25.134Z,22.50
2023-05-19T10:35:51.236Z,22.20
2023-05-19T10:38:46.040Z,22.50
2023-05-19T10:41:39.586Z,22.50
2023-05-19T10:44:41.073Z,22.40
2023-05-19T10:47:12.755Z,23.00
2023-05-19T10:49:45.039Z,22.40
2023-05-19T10:52:29.695Z,22.60
2023-05-19T10:55:02.217Z,22.50
2023-05-19T10:57:33.966Z,22.20
2023-05-19T11:00:31.955Z,22.40
2023-05-19T11:03:24.500Z,22.10
2023-05-19T11:06:31.988Z,22.10
2023-05-19T11:09:39.992Z,22.10
2023-05-19T11:12:11.482Z,22.10
2023-05-19T11:14:42.944Z,22.30
2023-05-19T11:17:16.320Z,22.70
2023-05-19T11:19:56.756Z,22.30
2023-05-19T11:22:29.322Z,22.10
2023-05-19T11:25:00.737Z,22.40
2023-05-19T11:27:34.849Z,22.40
2023-05-19T11:30:07.483Z,22.40
2023-05-19T11:32:44.271Z,22.50
2023-05-19T11:35:16.971Z,22.40
2023-05-19T11:37:51.447Z,22.10
2023-05-19T11:40:23.462Z,22.30
2023-05-19T11:42:54.398Z,22.10
2023-05-19T11:45:26.561Z,22.50
2023-05-19T11:48:02.530Z,22.40
2023-05-19T11:50:33.924Z,22.60
2023-05-19T11:53:05.000Z,22.70
2023-05-19T11:55:43.466Z,22.70
2023-05-19T11:58:14.874Z,22.60
2023-05-19T12:00:47.658Z,22.40
2023-05-19T12:03:23.180Z,22.80
2023-05-19T12:05:54.513Z,22.70
2023-05-19T12:08:27.263Z,22.90
2023-05-19T12:10:58.307Z,23.00
2023-05-19T12:13:29.346Z,22.80
2023-05-19T12:16:01.562Z,23.20
2023-05-19T12:18:37.575Z,22.80
2023-05-19T12:21:08.689Z,22.90
2023-05-19T12:23:41.580Z,23.00
2023-05-19T12:26:13.048Z,23.10
2023-05-19T12:28:46.200Z,22.80
2023-05-19T12:31:18.055Z,23.00
2023-05-19T12:33:52.633Z,23.10
2023-05-19T12:36:25.364Z,23.10
2023-05-19T12:38:56.483Z,22.90
2023-05-19T12:41:27.453Z,22.90
2023-05-19T12:43:58.414Z,23.00
2023-05-19T12:46:33.447Z,23.00
2023-05-19T12:49:04.396Z,23.30
2023-05-19T12:51:37.184Z,22.90
2023-05-19T12:54:08.433Z,22.80
2023-05-19T12:56:49.742Z,22.90
2023-05-19T12:59:37.243Z,22.70
2023-05-19T13:02:08.960Z,22.50
2023-05-19T13:04:40.109Z,22.50
2023-05-19T13:07:11.009Z,22.80
2023-05-19T13:09:42.272Z,22.50
2023-05-19T13:12:13.350Z,22.50
2023-05-19T13:14:44.879Z,22.50
2023-05-19T13:17:16.116Z,22.50
2023-05-19T13:19:47.206Z,22.90
2023-05-19T13:22:18.217Z,22.90
2023-05-19T13:24:49.204Z,22.50
2023-05-19T13:27:20.267Z,22.50
2023-05-19T13:29:51.219Z,22.60
2023-05-19T13:32:22.219Z,22.60
2023-05-19T13:34:53.189Z,22.50
2023-05-19T13:37:24.580Z,22.40
2023-05-19T13:39:55.981Z,22.80
2023-05-19T13:42:26.947Z,22.50
2023-05-19T13:44:57.890Z,22.40
2023-05-19T13:47:29.867Z,22.50
2023-05-19T13:50:02.740Z,22.40
2023-05-19T13:52:33.721Z,22.40
2023-05-19T13:55:06.690Z,22.50
2023-05-19T13:57:38.283Z,22.60
2023-05-19T14:00:10.695Z,22.50
2023-05-19T14:02:42.397Z,22.80
2023-05-19T14:05:13.910Z,22.80
2023-05-19T14:07:45.205Z,22.70
2023-05-19T14:10:16.241Z,22.70
2023-05-19T14:13:12.294Z,22.70
2023-05-19T14:15:38.551Z,23.10
2023-05-19T14:18:09.615Z,23.10
2023-05-19T14:20:40.621Z,23.10
2023-05-19T14:23:11.619Z,23.20
2023-05-19T14:25:42.993Z,23.10
2023-05-19T14:28:13.919Z,23.00
2023-05-19T14:30:44.938Z,23.20
2023-05-19T14:33:16.755Z,22.80
2023-05-19T14:35:48.304Z,23.00
2023-05-19T14:38:19.570Z,23.40
2023-05-19T14:40:50.498Z,23.30
2023-05-19T14:43:21.659Z,22.80
2023-05-19T14:45:52.627Z,22.80
2023-05-19T14:48:23.635Z,23.00
2023-05-19T14:50:54.666Z,23.40
2023-05-19T14:53:25.654Z,23.70
2023-05-19T14:55:56.660Z,23.90
2023-05-19T14:58:29.222Z,23.80
2023-05-19T15:01:00.656Z,23.60
2023-05-19T15:03:31.673Z,24.00
2023-05-19T15:06:02.675Z,24.00
2023-05-19T15:08:33.634Z,23.70
2023-05-19T15:11:04.916Z,24.00
2023-05-19T15:13:36.041Z,23.80
2023-05-19T15:16:17.594Z,23.90
2023-05-19T15:18:51.498Z,23.80
2023-05-19T15:21:22.470Z,23.70
2023-05-19T15:23:53.397Z,23.80
2023-05-19T15:26:24.328Z,23.70
2023-05-19T15:28:55.262Z,24.20
2023-05-19T15:31:26.286Z,24.10
2023-05-19T15:33:57.245Z,24.00
2023-05-19T15:36:28.146Z,23.80
2023-05-19T15:38:59.080Z,24.00
2023-05-19T15:41:29.997Z,24.20
2023-05-19T15:44:02.362Z,24.20
2023-05-19T15:46:33.989Z,24.30
2023-05-19T15:49:04.905Z,24.20
2023-05-19T15:51:35.901Z,24.10
2023-05-19T15:54:06.858Z,24.10
2023-05-19T15:56:37.831Z,24.40
2023-05-19T15:59:08.713Z,24.50
2023-05-19T16:01:39.719Z,24.20
2023-05-19T16:04:10.895Z,24.00
2023-05-19T16:06:41.936Z,24.10
2023-05-19T16:09:12.997Z,24.30
2023-05-19T16:11:43.951Z,24.10
2023-05-19T16:14:14.869Z,24.20
2023-05-19T16:16:45.968Z,24.20
2023-05-19T16:19:17.041Z,24.00
2023-05-19T16:21:48.054Z,24.00
2023-05-19T16:24:19.455Z,24.10
2023-05-19T16:26:53.120Z,24.00
2023-05-19T16:29:24.175Z,24.10
2023-05-19T16:31:55.108Z,24.20
2023-05-19T16:34:26.680Z,23.70
2023-05-19T16:36:59.081Z,23.40
2023-05-19T16:39:30.721Z,24.10
2023-05-19T16:42:01.895Z,24.00
2023-05-19T16:44:32.777Z,24.20
2023-05-19T16:47:04.460Z,24.10
2023-05-19T16:49:35.573Z,24.60
2023-05-19T16:52:08.047Z,24.60
2023-05-19T16:54:39.089Z,24.90
2023-05-19T16:57:10.042Z,25.00
2023-05-19T16:59:41.524Z,25.30
2023-05-19T17:02:12.665Z,25.20
2023-05-19T17:04:43.623Z,25.60
2023-05-19T17:07:16.219Z,25.90
2023-05-19T17:09:48.290Z,26.50
2023-05-19T17:12:19.336Z,26.70
2023-05-19T17:14:52.885Z,26.30
2023-05-19T17:17:25.793Z,26.60
2023-05-19T17:19:57.546Z,26.30
2023-05-19T17:22:30.282Z,26.20
2023-05-19T17:25:01.372Z,26.30
2023-05-19T17:27:32.268Z,25.80
2023-05-19T17:30:03.903Z,25.60
2023-05-19T17:32:38.774Z,25.50
2023-05-19T17:35:10.310Z,25.90
2023-05-19T17:37:41.834Z,26.00
2023-05-19T17:40:13.380Z,25.90
2023-05-19T17:42:44.336Z,25.60
2023-05-19T17:45:15.298Z,25.30
2023-05-19T17:47:46.297Z,25.30
2023-05-19T17:50:17.309Z,25.30
2023-05-19T17:52:48.941Z,25.00
2023-05-19T17:55:20.583Z,25.20
2023-05-19T17:57:51.903Z,24.90
2023-05-19T18:00:23.871Z,25.00
2023-05-19T18:02:56.955Z,25.40
2023-05-19T18:05:28.372Z,24.90
2023-05-19T18:08:03.595Z,24.70
2023-05-19T18:10:37.836Z,24.40
2023-05-19T18:13:11.173Z,24.40
2023-05-19T18:15:43.098Z,24.20
2023-05-19T18:18:14.230Z,24.20
2023-05-19T18:20:45.998Z,24.10
2023-05-19T18:23:16.958Z,24.10
2023-05-19T18:25:53.938Z,24.20
2023-05-19T18:28:25.034Z,23.90
2023-05-19T18:31:00.878Z,24.00
2023-05-19T18:33:32.322Z,23.90
2023-05-19T18:36:03.406Z,23.80
2023-05-19T18:38:34.356Z,23.50
2023-05-19T18:41:09.306Z,23.50
2023-05-19T18:43:40.391Z,23.40
2023-05-19T18:46:11.508Z,23.30
2023-05-19T18:48:42.471Z,23.30
2023-05-19T18:51:15.739Z,23.10
2023-05-19T18:53:49.420Z,22.90
2023-05-19T18:56:27.627Z,22.80
2023-05-19T18:58:58.636Z,22.70
2023-05-19T19:01:29.763Z,22.70
2023-05-19T19:04:02.017Z,22.50
2023-05-19T19:06:33.087Z,22.30
2023-05-19T19:09:04.098Z,22.20
2023-05-19T19:11:35.052Z,22.00
2023-05-19T19:14:06.073Z,22.00
2023-05-19T19:16:37.828Z,21.90
2023-05-19T19:19:09.942Z,21.90
2023-05-19T19:21:41.079Z,21.80
2023-05-19T19:24:16.491Z,21.80
2023-05-19T19:26:47.455Z,21.50
2023-05-19T19:29:20.898Z,21.50
2023-05-19T19:31:51.937Z,21.60
2023-05-19T19:34:23.186Z,21.90
2023-05-19T19:36:56.968Z,22.60
2023-05-19T19:39:28.050Z,23.00
2023-05-19T19:42:02.006Z,23.20
2023-05-19T19:44:33.105Z,23.30
2023-05-19T19:47:07.665Z,23.40
2023-05-19T19:49:38.661Z,23.40
2023-05-19T19:52:10.003Z,23.60
2023-05-19T19:54:41.004Z,23.60
2023-05-19T19:57:11.924Z,22.70
2023-05-19T19:59:45.714Z,22.10
2023-05-19T20:02:16.881Z,22.00
2023-05-19T20:04:48.211Z,21.70
2023-05-19T20:07:20.864Z,21.60
2023-05-19T20:09:52.749Z,21.60
2023-05-19T20:12:26.928Z,21.40
2023-05-19T20:14:57.881Z,21.40
2023-05-19T20:17:29.009Z,21.30
2023-05-19T20:20:02.271Z,21.20
2023-05-19T20:22:33.223Z,21.30
2023-05-19T20:25:08.138Z,21.40
2023-05-19T20:27:39.024Z,21.50
2023-05-19T20:30:10.221Z,21.60
2023-05-19T20:32:46.534Z,21.60
2023-05-19T20:35:20.054Z,21.60
2023-05-19T20:37:51.068Z,21.50
2023-05-19T20:40:22.029Z,21.50
2023-05-19T20:42:54.726Z,21.40
2023-05-19T20:45:25.850Z,21.40
2023-05-19T20:47:57.001Z,21.40
2023-05-19T20:50:28.100Z,21.40
2023-05-19T20:52:59.047Z,21.30
2023-05-19T20:55:30.022Z,21.30
2023-05-19T20:58:01.072Z,21.30
2023-05-19T21:00:32.211Z,21.30
2023-05-19T21:03:04.034Z,21.40
2023-05-19T21:05:36.300Z,21.30
2023-05-19T21:08:12.864Z,21.40
2023-05-19T21:10:44.109Z,21.30
2023-05-19T21:13:15.131Z,21.40
2023-05-19T21:15:46.604Z,21.40
2023-05-19T21:18:17.546Z,21.40
2023-05-19T21:20:48.508Z,21.30
2023-05-19T21:23:19.501Z,21.10
2023-05-19T21:25:51.010Z,21.10
2023-05-19T21:28:22.270Z,21.30
2023-05-19T21:30:53.295Z,21.40
2023-05-19T21:33:24.661Z,21.90
2023-05-19T21:35:55.659Z,22.50
2023-05-19T21:38:27.750Z,21.90
2023-05-19T21:40:58.690Z,21.70
2023-05-19T21:43:29.590Z,21.50
2023-05-19T21:46:00.556Z,21.40
2023-05-19T21:48:31.652Z,21.40
2023-05-19T21:51:02.989Z,21.30
2023-05-19T21:53:33.931Z,21.20
2023-05-19T21:56:05.196Z,21.20
2023-05-19T21:58:36.268Z,21.10
2023-05-19T22:01:08.044Z,21.00
2023-05-19T22:03:39.226Z,21.10
2023-05-19T22:06:10.320Z,21.00
2023-05-19T22:08:41.240Z,20.90
2023-05-19T22:11:14.847Z,20.90
2023-05-19T22:13:45.842Z,20.70
2023-05-19T22:16:16.825Z,20.50
2023-05-19T22:18:47.730Z,20.50
2023-05-19T22:21:18.741Z,20.40
2023-05-19T22:23:49.642Z,20.20
2023-05-19T22:26:20.551Z,20.20
2023-05-19T22:28:51.898Z,20.00
2023-05-19T22:31:22.917Z,20.00
2023-05-19T22:33:53.898Z,19.90
2023-05-19T22:36:24.805Z,19.60
2023-05-19T22:38:55.901Z,19.70
2023-05-19T22:41:26.843Z,19.60
2023-05-19T22:43:57.755Z,19.50
2023-05-19T22:46:28.839Z,19.60
2023-05-19T22:48:59.864Z,19.50
2023-05-19T22:51:31.192Z,19.50
2023-05-19T22:54:02.308Z,19.50
2023-05-19T22:56:33.393Z,19.40
2023-05-19T22:59:04.288Z,19.30
2023-05-19T23:01:35.304Z,19.30
2023-05-19T23:04:06.421Z,19.30
2023-05-19T23:06:37.869Z,19.30
2023-05-19T23:09:08.763Z,19.20
2023-05-19T23:11:39.661Z,19.40
2023-05-19T23:14:10.863Z,19.40
2023-05-19T23:16:42.021Z,19.20
2023-05-19T23:19:13.115Z,19.20
2023-05-19T23:21:45.878Z,19.30
2023-05-19T23:24:16.765Z,19.20
2023-05-19T23:26:47.656Z,19.10
2023-05-19T23:29:18.598Z,19.10
2023-05-19T23:31:49.664Z,19.20
2023-05-19T23:34:20.622Z,19.00
2023-05-19T23:36:51.576Z,19.20
2023-05-19T23:39:25.154Z,19.10
2023-05-19T23:41:56.392Z,19.20
2023-05-19T23:44:27.348Z,19.40
2023-05-19T23:46:58.268Z,19.30
2023-05-19T23:49:29.292Z,19.20
2023-05-19T23:52:00.211Z,19.20
2023-05-19T23:54:31.155Z,19.10
2023-05-19T23:57:02.946Z,19.40
2023-05-19T23:59:34.146Z,19.20
